»·PEaware :: CLX419 KSFO-KPDX

CLX419 :: KSFO-KPDX

FLIGHT INFORMATION

Flight Status: Arrived
Operator:
Cargolux Airlines International
More flights by this operator :: More flights under this callsign
Pilot: Nils Z. (23708)
Aircraft: Unknown
(B748)
More flights by this aircraft type
Origin: KSFO San Francisco Intl
United States
Destination: KPDX Portland Intl
United States
More flights between these airports :: More routes between these airports
Route: TRUKN2 GRTFL MACHU TMBRS2
File this flight plan on PilotEdge
Remarks: RMK / SIMBRIEF
Altitude:
(Current/Filed)
38,000ft
Speed:
(Current/Filed)
497kts
Departed: 10-Mar-19 11:47 AM
Arrived: 10-Mar-19 01:11 PM
Distance/Time
Traveled:
478nm/1:24
Distance/Time
To Go:
Arrived

Flight Plot

Page will automatically refresh every two minutes.


Map Options




Map Legend


Flown Route
Filed Route
Departure Airport
Arrival Airport
Navaid (VOR, NDB)
Fix

Horizontal Profiles

Position Reports

Time Latitude Longitude Heading Altitude Ground
Speed
10-Mar-19 11:25 37.636124 -122.387719 60 26ft 0kts
10-Mar-19 11:26 37.636124 -122.387719 60 26ft 0kts
10-Mar-19 11:27 37.636124 -122.387719 60 26ft 0kts
10-Mar-19 11:28 37.636124 -122.387719 60 26ft 0kts
10-Mar-19 11:29 37.636124 -122.387719 60 26ft 0kts
10-Mar-19 11:30 37.636124 -122.387719 60 26ft 0kts
10-Mar-19 11:31 37.636124 -122.387719 60 26ft 0kts
10-Mar-19 11:32 37.636124 -122.387719 60 26ft 0kts
10-Mar-19 11:33 37.636124 -122.387719 60 26ft 0kts
10-Mar-19 11:34 37.636124 -122.387719 60 26ft 0kts
10-Mar-19 11:35 37.636100 -122.387769 62 26ft 2kts
10-Mar-19 11:36 37.636128 -122.388521 126 26ft 2kts
10-Mar-19 11:37 37.636373 -122.388804 153 26ft 0kts
10-Mar-19 11:38 37.636236 -122.388699 147 26ft 5kts
10-Mar-19 11:39 37.634243 -122.389883 247 26ft 16kts
10-Mar-19 11:40 37.631302 -122.392439 201 26ft 10kts
10-Mar-19 11:41 37.628230 -122.388444 117 26ft 28kts
10-Mar-19 11:42 37.624398 -122.379312 118 26ft 26kts
10-Mar-19 11:43 37.620950 -122.371110 118 26ft 27kts
10-Mar-19 11:44 37.617495 -122.362840 118 26ft 24kts
10-Mar-19 11:45 37.615064 -122.358300 171 26ft 6kts
10-Mar-19 11:46 37.618612 -122.369274 298 26ft 131kts
10-Mar-19 11:47 37.647983 -122.407440 17 1581ft 176kts
10-Mar-19 11:48 37.674122 -122.350185 66 3899ft 224kts
10-Mar-19 11:49 37.700672 -122.267204 70 6758ft 266kts
10-Mar-19 11:50 37.762422 -122.219126 3 9914ft 292kts
10-Mar-19 11:51 37.851203 -122.218702 359 11843ft 351kts
10-Mar-19 11:52 37.959053 -122.221049 358 13890ft 405kts
10-Mar-19 11:53 38.074324 -122.224099 358 16869ft 422kts
10-Mar-19 11:54 38.181056 -122.226942 358 19223ft 437kts
10-Mar-19 11:55 38.303805 -122.230200 358 21463ft 455kts
10-Mar-19 11:56 38.430658 -122.237681 354 23593ft 471kts
10-Mar-19 11:57 38.556495 -122.252182 354 25715ft 480kts
10-Mar-19 11:58 38.684472 -122.266206 355 27655ft 490kts
10-Mar-19 11:59 38.822836 -122.280607 356 29895ft 493kts
10-Mar-19 12:00 38.957422 -122.294679 356 32474ft 483kts
10-Mar-19 12:01 39.090356 -122.308768 355 34515ft 476kts
10-Mar-19 12:02 39.206848 -122.321579 355 35937ft 472kts
10-Mar-19 12:03 39.337238 -122.336682 354 37059ft 470kts
10-Mar-19 12:04 39.465361 -122.350124 356 37927ft 472kts
10-Mar-19 12:05 39.592985 -122.363317 355 38089ft 470kts
10-Mar-19 12:06 39.721440 -122.377042 355 38118ft 472kts
10-Mar-19 12:07 39.846242 -122.390286 356 38117ft 472kts
10-Mar-19 12:08 39.974714 -122.403772 355 38116ft 471kts
10-Mar-19 12:09 40.100696 -122.417415 356 38116ft 470kts
10-Mar-19 12:10 40.210592 -122.429345 356 38109ft 469kts
10-Mar-19 12:11 40.333233 -122.442646 356 38104ft 470kts
10-Mar-19 12:12 40.470614 -122.457754 356 38100ft 478kts
10-Mar-19 12:13 40.602174 -122.472375 356 38100ft 477kts
10-Mar-19 12:14 40.734114 -122.486956 356 38092ft 480kts
10-Mar-19 12:15 40.863264 -122.501284 356 38071ft 480kts
10-Mar-19 12:16 40.992143 -122.515631 356 38071ft 479kts
10-Mar-19 12:17 41.111757 -122.528988 357 38072ft 478kts
10-Mar-19 12:18 41.237418 -122.543012 357 38075ft 477kts
10-Mar-19 12:19 41.368649 -122.557721 357 38084ft 477kts
10-Mar-19 12:20 41.496210 -122.572172 357 38093ft 476kts
10-Mar-19 12:21 41.623717 -122.583157 359 38092ft 475kts
10-Mar-19 12:22 41.752846 -122.590385 359 38091ft 475kts
10-Mar-19 12:24 41.881484 -122.598588 359 38090ft 475kts
10-Mar-19 12:25 42.011488 -122.607166 359 38099ft 475kts
10-Mar-19 12:26 42.134472 -122.615173 359 38115ft 473kts
10-Mar-19 12:27 42.238921 -122.622090 359 38113ft 472kts
10-Mar-19 12:28 42.382883 -122.631664 359 38113ft 471kts
10-Mar-19 12:29 42.517547 -122.640698 359 38112ft 470kts
10-Mar-19 12:30 42.648061 -122.649489 0 38122ft 469kts
10-Mar-19 12:31 42.776153 -122.659111 359 38131ft 469kts
10-Mar-19 12:32 42.905251 -122.666635 359 38131ft 468kts
10-Mar-19 12:33 43.034642 -122.678166 359 38130ft 468kts
10-Mar-19 12:34 43.160329 -122.687070 0 38166ft 466kts
10-Mar-19 12:35 43.287205 -122.694560 0 38184ft 466kts
10-Mar-19 12:36 43.412351 -122.702429 359 38185ft 447kts
10-Mar-19 12:37 43.536401 -122.711618 359 38180ft 448kts
10-Mar-19 12:38 43.653712 -122.720230 0 37042ft 412kts
10-Mar-19 12:39 43.761046 -122.727578 1 35764ft 373kts
10-Mar-19 12:40 43.861289 -122.734275 2 34544ft 365kts
10-Mar-19 12:41 43.960746 -122.741010 2 33307ft 357kts
10-Mar-19 12:42 44.058136 -122.747707 2 32039ft 347kts
10-Mar-19 12:42 44.133168 -122.752595 2 31071ft 341kts
10-Mar-19 12:44 44.237028 -122.746599 8 29740ft 329kts
10-Mar-19 12:45 44.329047 -122.736828 8 28522ft 323kts
10-Mar-19 12:45 44.403582 -122.729350 8 27495ft 319kts
10-Mar-19 12:46 44.498374 -122.720047 7 25856ft 345kts
10-Mar-19 12:47 44.592726 -122.715431 5 24128ft 329kts
10-Mar-19 12:48 44.684761 -122.713143 10 21976ft 325kts
10-Mar-19 12:49 44.773374 -122.704245 15 19732ft 309kts
10-Mar-19 12:50 44.858259 -122.683995 8 17507ft 309kts
10-Mar-19 12:51 44.944543 -122.674680 7 15233ft 307kts
10-Mar-19 12:52 45.029714 -122.666195 6 13196ft 303kts
10-Mar-19 12:53 45.113375 -122.657824 6 11357ft 295kts
10-Mar-19 12:54 45.194547 -122.649456 6 9726ft 285kts
10-Mar-19 12:55 45.272402 -122.655629 344 8349ft 280kts
10-Mar-19 12:56 45.345240 -122.696107 340 7285ft 274kts
10-Mar-19 12:57 45.413565 -122.733456 341 6316ft 248kts
10-Mar-19 12:58 45.475816 -122.767807 341 5351ft 227kts
10-Mar-19 12:59 45.522293 -122.828655 314 4393ft 227kts
10-Mar-19 13:00 45.564548 -122.893565 314 3620ft 212kts
10-Mar-19 13:01 45.603300 -122.952750 315 3097ft 200kts
10-Mar-19 13:02 45.646183 -123.001804 13 3070ft 194kts
10-Mar-19 13:03 45.683335 -122.948734 45 3081ft 186kts
10-Mar-19 13:04 45.692486 -122.874827 99 3063ft 190kts
10-Mar-19 13:05 45.668260 -122.809752 117 2932ft 169kts
10-Mar-19 13:06 45.647831 -122.756926 117 2190ft 143kts
10-Mar-19 13:07 45.628398 -122.706749 118 1395ft 141kts
10-Mar-19 13:08 45.609265 -122.657712 114 644ft 137kts
10-Mar-19 13:09 45.591086 -122.611080 117 31ft 102kts
10-Mar-19 13:10 45.586733 -122.600770 192 28ft 5kts
10-Mar-19 13:11 45.586394 -122.603264 268 28ft 12kts
10-Mar-19 13:12 45.585846 -122.603580 175 28ft 0kts

Navigation Log

Ident Type
Flight plan parsing failed, navigation log unavailable